Time;durP1;ratioP1;P1;durP2;ratioP2;P2;SDS_P1;SDS_P2;PMS_P1;PMS_P2;Temp;Humidity;BMP_temperature;BMP_pressure;BME280_temperature;BME280_humidity;BME280_pressure;Samples;Min_cycle;Max_cycle;Signal;HPM_P1;HPM_P2
2021/06/15 00:01:31;;;;;;;7.18;3.88;;;20.30;92.10;;;;;;5033250;28;20025;-68
2021/06/15 00:03:56;;;;;;;7.68;3.58;;;20.20;92.10;;;;;;5023290;28;20064;-68
2021/06/15 00:06:22;;;;;;;9.30;4.43;;;20.30;92.20;;;;;;5032528;28;20049;-67
2021/06/15 00:08:47;;;;;;;7.80;4.00;;;20.20;92.30;;;;;;5035635;28;20087;-66
2021/06/15 00:11:13;;;;;;;8.10;3.50;;;20.20;92.40;;;;;;5034888;28;20035;-68
2021/06/15 00:13:39;;;;;;;7.55;3.90;;;20.20;92.40;;;;;;5027526;28;20025;-68
2021/06/15 00:16:04;;;;;;;6.55;3.65;;;20.20;92.50;;;;;;5033004;28;20391;-66
2021/06/15 00:18:32;;;;;;;17.42;4.97;;;20.30;92.60;;;;;;5032088;28;20509;-66
2021/06/15 00:20:57;;;;;;;6.15;4.00;;;20.20;92.60;;;;;;5032418;28;20536;-66
2021/06/15 00:23:23;;;;;;;12.48;4.20;;;20.30;92.70;;;;;;5039181;28;20125;-68
2021/06/15 00:25:48;;;;;;;10.00;4.68;;;20.30;92.80;;;;;;5046234;28;20025;-68
2021/06/15 00:28:14;;;;;;;7.82;4.70;;;20.30;92.80;;;;;;5039371;28;20025;-68
2021/06/15 00:30:40;;;;;;;6.28;4.30;;;20.40;92.90;;;;;;5030581;28;20112;-66
2021/06/15 00:33:06;;;;;;;7.47;4.75;;;20.40;92.90;;;;;;5030954;28;20163;-66
2021/06/15 00:35:31;;;;;;;8.13;4.30;;;20.40;92.90;;;;;;5035386;28;20032;-65
2021/06/15 00:37:57;;;;;;;9.73;4.45;;;20.40;92.90;;;;;;5032120;28;20036;-65
2021/06/15 00:40:23;;;;;;;12.73;4.82;;;20.40;92.90;;;;;;5031846;28;20032;-68
2021/06/15 00:42:49;;;;;;;13.77;5.68;;;20.50;93.00;;;;;;5033951;28;20375;-68
2021/06/15 00:45:17;;;;;;;10.35;4.53;;;20.40;92.90;;;;;;5045637;28;20033;-68
2021/06/15 00:47:46;;;;;;;11.93;3.95;;;20.40;92.90;;;;;;5031399;28;20035;-68
2021/06/15 00:50:13;;;;;;;13.45;4.97;;;20.40;93.00;;;;;;5032124;28;20479;-68
2021/06/15 00:52:38;;;;;;;9.02;4.00;;;20.30;93.00;;;;;;5031391;28;20049;-68
2021/06/15 00:55:05;;;;;;;9.88;4.50;;;20.30;93.10;;;;;;5032162;28;20110;-68
2021/06/15 00:57:30;;;;;;;7.45;4.15;;;20.30;93.10;;;;;;5036985;28;20028;-68
2021/06/15 00:59:57;;;;;;;8.07;4.25;;;20.30;93.20;;;;;;5030517;28;20026;-68
2021/06/15 01:02:26;;;;;;;9.82;4.30;;;20.30;93.20;;;;;;5031872;28;20117;-68
2021/06/15 01:04:51;;;;;;;11.13;3.83;;;20.30;93.20;;;;;;5030205;28;20104;-68
2021/06/15 01:07:20;;;;;;;13.95;3.72;;;20.40;93.30;;;;;;5032038;28;20097;-68
2021/06/15 01:10:09;;;;;;;10.13;3.67;;;20.40;93.30;;;;;;5031397;28;20108;-68
2021/06/15 01:12:50;;;;;;;13.30;4.40;;;20.40;93.20;;;;;;5029451;28;20324;-68
2021/06/15 01:15:24;;;;;;;9.60;4.05;;;20.30;93.30;;;;;;5034845;28;20018;-68
2021/06/15 01:17:55;;;;;;;7.32;3.42;;;20.30;93.40;;;;;;5028808;28;20108;-68
2021/06/15 01:20:25;;;;;;;6.65;3.53;;;20.30;93.40;;;;;;5023884;28;20022;-68
2021/06/15 01:23:02;;;;;;;13.20;4.28;;;20.30;93.40;;;;;;5029771;28;20119;-68
2021/06/15 01:25:48;;;;;;;11.35;4.47;;;20.30;93.40;;;;;;5033734;28;20033;-68
2021/06/15 01:28:43;;;;;;;14.63;3.58;;;20.30;93.30;;;;;;5024429;28;20025;-68
2021/06/15 01:31:24;;;;;;;9.10;3.83;;;20.20;93.40;;;;;;5022132;28;20438;-68
2021/06/15 01:34:03;;;;;;;9.15;3.80;;;20.20;93.40;;;;;;5024145;28;20084;-68
2021/06/15 01:36:33;;;;;;;5.95;3.17;;;20.10;93.40;;;;;;5030874;28;20479;-68
2021/06/15 01:39:03;;;;;;;12.07;4.28;;;20.10;93.50;;;;;;5028246;28;20076;-68
2021/06/15 01:41:58;;;;;;;11.25;3.00;;;20.10;93.50;;;;;;5034854;28;20024;-68
2021/06/15 01:44:25;;;;;;;10.60;3.85;;;20.10;93.40;;;;;;5031122;28;20087;-68
2021/06/15 01:47:04;;;;;;;7.90;3.53;;;20.00;93.50;;;;;;5033939;28;20116;-68
2021/06/15 01:49:41;;;;;;;10.43;3.20;;;20.00;93.50;;;;;;5030931;28;20804;-68
2021/06/15 01:52:08;;;;;;;8.80;3.65;;;20.00;93.60;;;;;;5040145;28;20264;-68
2021/06/15 01:54:35;;;;;;;9.82;3.05;;;20.00;93.60;;;;;;5030545;28;20013;-68
2021/06/15 01:57:01;;;;;;;12.25;3.15;;;20.00;93.60;;;;;;5044277;28;20021;-67
2021/06/15 01:59:27;;;;;;;5.88;2.40;;;20.00;93.60;;;;;;5032983;28;20028;-67
2021/06/15 02:01:57;;;;;;;7.50;3.67;;;20.00;93.60;;;;;;5038782;28;20032;-67
2021/06/15 02:04:25;;;;;;;6.97;3.35;;;19.90;93.60;;;;;;5032577;28;20018;-67
2021/06/15 02:06:52;;;;;;;9.30;3.00;;;19.90;93.50;;;;;;5032662;28;20028;-67
2021/06/15 02:09:21;;;;;;;6.05;3.33;;;19.90;93.50;;;;;;5033023;28;20036;-67
2021/06/15 02:11:47;;;;;;;8.57;3.33;;;19.90;93.40;;;;;;5031409;28;20029;-68
2021/06/15 02:14:22;;;;;;;6.38;2.88;;;19.90;93.40;;;;;;5037413;28;20064;-67
2021/06/15 02:16:50;;;;;;;4.28;2.20;;;19.90;93.30;;;;;;5024862;28;20021;-68
2021/06/15 02:19:21;;;;;;;6.78;3.05;;;19.90;93.30;;;;;;5030693;28;20025;-68
2021/06/15 02:21:49;;;;;;;9.13;2.90;;;19.90;93.20;;;;;;5042512;28;20025;-67
2021/06/15 02:24:17;;;;;;;5.47;2.83;;;19.80;93.20;;;;;;5032753;28;20439;-67
2021/06/15 02:26:44;;;;;;;6.95;3.03;;;19.80;93.20;;;;;;5032186;28;20033;-68
2021/06/15 02:29:11;;;;;;;6.35;2.45;;;19.80;93.00;;;;;;5032529;28;20018;-68
2021/06/15 02:31:43;;;;;;;4.28;1.85;;;19.80;92.90;;;;;;5027729;28;20017;-67
2021/06/15 02:34:13;;;;;;;5.85;1.80;;;19.80;92.90;;;;;;5028383;28;20021;-68
2021/06/15 02:36:42;;;;;;;5.03;2.20;;;19.80;92.80;;;;;;5044456;28;20021;-67
2021/06/15 02:39:11;;;;;;;6.28;1.73;;;19.80;92.70;;;;;;5030884;28;20055;-67
2021/06/15 02:41:40;;;;;;;6.55;1.80;;;19.80;92.30;;;;;;5035778;28;20105;-67
2021/06/15 02:44:07;;;;;;;5.18;1.70;;;19.70;92.20;;;;;;5033628;28;20043;-67
2021/06/15 02:46:35;;;;;;;4.72;1.55;;;19.60;92.40;;;;;;5043390;28;20028;-67
2021/06/15 02:49:07;;;;;;;4.75;1.33;;;19.60;92.50;;;;;;5047341;28;20029;-66
2021/06/15 02:51:38;;;;;;;6.82;1.55;;;19.60;92.40;;;;;;5038126;28;20374;-66
2021/06/15 02:54:26;;;;;;;4.28;1.20;;;19.60;92.20;;;;;;5025627;28;20010;-66
2021/06/15 02:56:53;;;;;;;7.60;1.15;;;19.60;91.90;;;;;;5032861;28;20524;-66
2021/06/15 02:59:20;;;;;;;4.88;0.88;;;19.50;91.80;;;;;;5034222;28;20045;-67
2021/06/15 03:01:53;;;;;;;3.13;0.88;;;19.50;91.70;;;;;;5033047;28;20024;-66
2021/06/15 03:04:19;;;;;;;3.67;0.93;;;19.50;91.60;;;;;;5030872;28;20036;-67
2021/06/15 03:06:44;;;;;;;4.85;1.02;;;19.50;91.80;;;;;;5033007;28;20021;-67
2021/06/15 03:09:12;;;;;;;2.47;0.85;;;19.50;91.50;;;;;;5034727;28;20037;-66
2021/06/15 03:11:42;;;;;;;5.20;0.68;;;19.50;91.50;;;;;;5039835;28;20652;-66
2021/06/15 03:14:14;;;;;;;3.85;0.70;;;19.50;91.40;;;;;;5033179;28;20017;-67
2021/06/15 03:16:40;;;;;;;6.97;0.77;;;19.50;91.20;;;;;;5031761;28;20044;-67
2021/06/15 03:19:16;;;;;;;4.63;0.80;;;19.50;91.20;;;;;;5036263;28;20022;-66
2021/06/15 03:22:06;;;;;;;4.60;0.93;;;19.50;91.00;;;;;;5029575;28;20021;-67
2021/06/15 03:24:34;;;;;;;2.55;0.50;;;19.50;90.90;;;;;;5039689;28;20033;-67
2021/06/15 03:27:06;;;;;;;4.18;0.70;;;19.40;90.90;;;;;;5035544;28;20032;-66
2021/06/15 03:29:40;;;;;;;3.80;0.70;;;19.40;90.90;;;;;;5033316;28;20033;-67
2021/06/15 03:32:09;;;;;;;4.63;0.32;;;19.40;91.00;;;;;;5033495;28;20033;-66
2021/06/15 03:34:40;;;;;;;3.25;0.60;;;19.40;90.80;;;;;;5032112;28;20037;-66
2021/06/15 03:37:07;;;;;;;2.80;0.80;;;19.40;90.60;;;;;;5038620;28;20020;-66
2021/06/15 03:39:35;;;;;;;4.60;0.68;;;19.30;90.70;;;;;;5031920;28;20018;-67
2021/06/15 03:42:02;;;;;;;5.15;0.77;;;19.20;90.60;;;;;;5030784;28;20435;-65
2021/06/15 03:44:28;;;;;;;4.30;0.70;;;19.10;90.60;;;;;;5042648;28;20566;-66
2021/06/15 03:46:56;;;;;;;3.70;0.50;;;19.10;90.80;;;;;;5032875;28;20029;-66
2021/06/15 03:49:23;;;;;;;7.25;0.95;;;19.10;90.90;;;;;;5037127;28;20097;-66
2021/06/15 03:51:53;;;;;;;4.95;0.68;;;19.10;91.00;;;;;;5024999;28;20029;-66
2021/06/15 03:54:21;;;;;;;4.55;0.80;;;19.10;90.90;;;;;;5030911;28;20022;-67
2021/06/15 03:56:49;;;;;;;7.88;0.93;;;19.10;90.90;;;;;;5032537;28;20089;-66
2021/06/15 03:59:18;;;;;;;5.82;0.73;;;19.10;90.90;;;;;;5029712;28;20022;-67
2021/06/15 04:01:46;;;;;;;3.97;1.00;;;19.10;91.00;;;;;;5032104;28;20337;-66
2021/06/15 04:04:16;;;;;;;3.40;0.73;;;19.10;91.00;;;;;;5038392;28;20490;-66
2021/06/15 04:06:50;;;;;;;7.47;0.93;;;19.00;91.20;;;;;;5037999;28;20029;-66
2021/06/15 04:09:20;;;;;;;6.47;1.30;;;19.10;91.30;;;;;;5036473;28;20029;-67
2021/06/15 04:11:46;;;;;;;6.75;1.58;;;19.00;91.40;;;;;;5039288;28;20080;-67
2021/06/15 04:14:12;;;;;;;9.85;1.58;;;19.00;91.50;;;;;;5035211;28;20103;-67
2021/06/15 04:16:39;;;;;;;9.00;2.00;;;19.00;91.60;;;;;;5035205;28;20020;-66
2021/06/15 04:19:13;;;;;;;9.32;2.17;;;19.00;91.70;;;;;;5044729;28;20009;-66
2021/06/15 04:21:44;;;;;;;10.10;1.98;;;19.10;91.90;;;;;;5032052;28;20037;-67
2021/06/15 04:24:14;;;;;;;8.18;1.65;;;19.10;92.00;;;;;;5037647;28;20024;-67
2021/06/15 04:26:40;;;;;;;4.88;1.73;;;19.10;92.00;;;;;;5032210;28;20419;-67
2021/06/15 04:29:07;;;;;;;9.75;1.88;;;19.00;92.00;;;;;;5035068;28;20103;-67
2021/06/15 04:31:35;;;;;;;4.85;1.23;;;19.00;92.10;;;;;;5043304;28;20394;-67
2021/06/15 04:34:01;;;;;;;6.95;1.85;;;19.00;92.30;;;;;;5036317;28;20045;-67
2021/06/15 04:36:29;;;;;;;4.35;1.40;;;19.00;92.30;;;;;;5041946;28;20493;-67
2021/06/15 04:38:59;;;;;;;8.13;1.75;;;19.00;92.20;;;;;;5039245;28;20109;-67
2021/06/15 04:41:27;;;;;;;;;;;18.90;92.30;;;;;;5032831;28;20025;-67
2021/06/15 04:43:57;;;;;;;9.85;2.53;;;18.80;92.40;;;;;;5033605;28;19996;-66
2021/06/15 04:46:31;;;;;;;6.20;2.03;;;18.80;92.50;;;;;;5044281;28;20143;-66
2021/06/15 04:49:05;;;;;;;5.47;1.80;;;18.80;92.70;;;;;;5047129;28;20036;-66
2021/06/15 04:51:32;;;;;;;6.85;2.08;;;18.70;92.90;;;;;;5032546;28;20079;-67
2021/06/15 04:53:59;;;;;;;9.40;1.95;;;18.70;93.10;;;;;;5042835;28;20390;-67
2021/06/15 04:56:28;;;;;;;9.23;2.22;;;18.80;93.10;;;;;;5035499;28;20029;-66
2021/06/15 04:58:54;;;;;;;7.95;2.10;;;18.90;93.20;;;;;;5033985;28;20097;-67
2021/06/15 05:01:20;;;;;;;9.50;1.77;;;18.90;93.00;;;;;;5041002;28;20105;-66
2021/06/15 05:03:46;;;;;;;8.30;2.05;;;19.00;93.10;;;;;;5030534;28;20108;-67
2021/06/15 05:06:13;;;;;;;7.85;2.05;;;19.10;93.00;;;;;;5031568;28;20021;-67
2021/06/15 05:08:54;;;;;;;9.00;1.48;;;19.10;93.00;;;;;;5031696;28;20022;-67
2021/06/15 05:11:20;;;;;;;6.30;1.38;;;19.10;93.00;;;;;;5031925;28;20099;-67
2021/06/15 05:13:47;;;;;;;4.20;1.35;;;19.10;92.90;;;;;;5035389;28;20028;-67
2021/06/15 05:16:14;;;;;;;6.30;1.55;;;19.20;92.70;;;;;;5030878;28;20475;-66
2021/06/15 05:18:40;;;;;;;4.47;1.27;;;19.10;92.70;;;;;;5031054;28;20060;-67
2021/06/15 05:21:12;;;;;;;4.55;1.30;;;19.10;92.90;;;;;;5031656;28;20083;-67
2021/06/15 05:23:51;;;;;;;5.70;1.42;;;19.10;93.00;;;;;;5031374;28;20036;-66
2021/06/15 05:26:17;;;;;;;8.63;1.15;;;19.10;92.70;;;;;;5031625;28;20021;-67
2021/06/15 05:28:42;;;;;;;4.60;1.02;;;19.10;92.70;;;;;;5037169;28;20043;-67
2021/06/15 05:31:08;;;;;;;7.78;1.40;;;19.10;92.60;;;;;;5031109;28;20033;-67
2021/06/15 05:33:34;;;;;;;8.35;1.30;;;19.10;92.50;;;;;;5032323;28;20018;-67
2021/06/15 05:35:59;;;;;;;5.68;1.10;;;19.10;92.40;;;;;;5029954;28;20136;-66
2021/06/15 05:38:25;;;;;;;8.48;2.17;;;19.20;92.30;;;;;;5026977;28;20034;-66
2021/06/15 05:40:51;;;;;;;4.80;0.95;;;19.20;92.10;;;;;;5024262;28;20034;-66
2021/06/15 05:43:17;;;;;;;6.50;1.13;;;19.20;92.00;;;;;;5030002;28;20021;-67
2021/06/15 05:45:43;;;;;;;7.72;1.48;;;19.10;91.90;;;;;;5029088;28;20076;-66
2021/06/15 05:48:09;;;;;;;10.25;1.27;;;19.10;92.00;;;;;;5037406;28;20025;-67
2021/06/15 05:50:34;;;;;;;7.47;1.30;;;19.10;92.20;;;;;;5024875;28;20022;-66
2021/06/15 05:53:00;;;;;;;9.43;1.42;;;19.20;92.30;;;;;;5050191;28;20089;-67
2021/06/15 05:55:25;;;;;;;5.07;1.08;;;19.20;92.20;;;;;;5023368;28;20455;-66
2021/06/15 05:57:51;;;;;;;6.53;1.42;;;19.30;92.20;;;;;;5039458;28;20509;-66
2021/06/15 06:00:17;;;;;;;8.90;1.30;;;19.40;92.10;;;;;;5031851;28;20048;-66
2021/06/15 06:02:43;;;;;;;7.60;1.30;;;19.40;91.70;;;;;;5039127;28;20029;-66
2021/06/15 06:08:04;;;;;;;4.53;0.90;;;19.40;91.60;;;;;;5030132;28;20390;-66
2021/06/15 06:08:04;;;;;;;10.07;1.40;;;19.40;91.70;;;;;;5024913;28;20125;-68
2021/06/15 06:10:30;;;;;;;9.18;1.23;;;19.30;91.80;;;;;;5025730;28;20472;-66
2021/06/15 06:12:56;;;;;;;6.43;1.10;;;19.30;92.00;;;;;;5027253;28;20140;-66
2021/06/15 06:15:21;;;;;;;6.32;1.02;;;19.30;92.10;;;;;;5028763;28;20013;-65
2021/06/15 06:17:48;;;;;;;13.27;1.67;;;19.30;91.90;;;;;;5015332;28;20701;-65
2021/06/15 06:20:16;;;;;;;4.18;0.90;;;19.30;91.70;;;;;;5014812;28;20175;-66
2021/06/15 06:22:41;;;;;;;8.70;1.20;;;19.30;91.70;;;;;;5010065;28;20026;-65
2021/06/15 06:25:09;;;;;;;11.48;1.50;;;19.30;91.80;;;;;;5011532;28;20045;-65
2021/06/15 06:27:36;;;;;;;7.90;1.52;;;19.40;91.70;;;;;;5021043;28;20022;-65
2021/06/15 06:30:03;;;;;;;9.60;1.40;;;19.50;91.60;;;;;;5017865;28;20022;-65
2021/06/15 06:32:28;;;;;;;5.43;1.42;;;19.60;91.50;;;;;;5016461;28;20105;-65
2021/06/15 06:34:54;;;;;;;5.68;0.73;;;19.70;91.50;;;;;;5038182;28;20029;-66
2021/06/15 06:37:19;;;;;;;4.32;1.05;;;20.10;91.10;;;;;;5026783;28;20068;-66
2021/06/15 06:39:45;;;;;;;5.72;0.98;;;20.70;90.40;;;;;;5027560;28;20149;-66
2021/06/15 06:42:10;;;;;;;7.30;1.13;;;21.40;89.80;;;;;;5029772;28;20493;-65
2021/06/15 06:44:36;;;;;;;5.93;1.33;;;22.10;86.90;;;;;;5030113;28;20502;-65
2021/06/15 06:47:01;;;;;;;5.38;0.77;;;22.80;85.60;;;;;;5025799;28;20021;-63
2021/06/15 06:49:27;;;;;;;4.43;0.70;;;23.60;83.10;;;;;;5030177;28;20030;-63
2021/06/15 06:51:53;;;;;;;5.07;0.93;;;24.30;80.10;;;;;;5029151;28;20029;-63
2021/06/15 06:54:18;;;;;;;6.00;1.00;;;25.10;77.60;;;;;;5015929;28;20374;-63
2021/06/15 06:56:44;;;;;;;6.63;1.20;;;25.70;74.60;;;;;;5022595;28;20018;-63
2021/06/15 06:59:09;;;;;;;5.45;1.55;;;26.00;73.00;;;;;;5026179;28;20546;-63
2021/06/15 07:01:35;;;;;;;4.45;0.55;;;26.30;71.50;;;;;;5029943;28;20036;-63
2021/06/15 07:04:00;;;;;;;6.05;0.90;;;26.30;70.70;;;;;;5029362;28;20371;-63
2021/06/15 07:06:26;;;;;;;5.65;0.90;;;26.20;69.90;;;;;;5042726;28;20382;-62
2021/06/15 07:08:53;;;;;;;5.45;0.90;;;26.30;70.10;;;;;;5029209;28;20359;-62
2021/06/15 07:11:19;;;;;;;4.60;0.93;;;26.60;69.20;;;;;;5029423;28;20021;-62
2021/06/15 07:13:45;;;;;;;7.55;1.08;;;26.80;67.70;;;;;;5029641;28;20435;-63
2021/06/15 07:16:11;;;;;;;5.32;0.80;;;26.90;67.30;;;;;;5023330;28;20030;-63
2021/06/15 07:18:38;;;;;;;3.33;0.73;;;27.20;67.20;;;;;;5025362;28;20157;-63
2021/06/15 07:21:06;;;;;;;6.32;1.08;;;27.60;65.90;;;;;;5027586;28;20426;-62
2021/06/15 07:23:32;;;;;;;3.88;0.73;;;28.00;64.50;;;;;;5028208;28;20034;-63
2021/06/15 07:25:58;;;;;;;6.35;1.55;;;28.20;63.20;;;;;;5040786;28;20478;-63
2021/06/15 07:28:23;;;;;;;4.60;1.08;;;28.10;62.80;;;;;;5028835;28;20083;-63
2021/06/15 07:30:49;;;;;;;4.18;1.17;;;27.90;62.50;;;;;;5025493;28;20042;-63
2021/06/15 07:33:15;;;;;;;5.82;0.95;;;27.80;62.50;;;;;;5024748;28;20030;-63
2021/06/15 07:35:40;;;;;;;6.80;1.23;;;27.60;62.70;;;;;;5027588;28;20017;-64
2021/06/15 07:38:06;;;;;;;5.60;0.90;;;27.20;63.00;;;;;;5025721;28;20076;-64
2021/06/15 07:40:31;;;;;;;4.63;1.20;;;26.90;63.60;;;;;;5031868;28;20083;-64
2021/06/15 07:42:58;;;;;;;4.82;1.15;;;26.50;64.10;;;;;;5025590;28;20021;-64
2021/06/15 07:45:27;;;;;;;6.22;0.98;;;26.40;64.80;;;;;;5027336;28;20507;-64
2021/06/15 07:47:53;;;;;;;4.00;0.70;;;26.40;64.60;;;;;;5027308;28;20083;-64
2021/06/15 07:50:19;;;;;;;5.18;1.13;;;26.50;64.90;;;;;;5031590;28;20025;-64
2021/06/15 07:52:46;;;;;;;5.30;1.08;;;26.90;64.80;;;;;;5033042;28;20427;-64
2021/06/15 07:55:13;;;;;;;3.65;0.98;;;27.40;63.40;;;;;;5032081;28;20368;-64
2021/06/15 07:57:39;;;;;;;3.08;0.88;;;27.90;62.30;;;;;;5027530;28;20029;-64
2021/06/15 08:00:07;;;;;;;6.05;1.60;;;28.10;62.00;;;;;;5025429;28;20034;-65
2021/06/15 08:02:32;;;;;;;8.80;0.80;;;28.30;61.10;;;;;;5025623;28;20049;-64
2021/06/15 08:04:58;;;;;;;3.20;0.95;;;28.40;60.80;;;;;;5031892;28;20474;-64
2021/06/15 08:07:23;;;;;;;9.50;1.02;;;28.50;60.30;;;;;;5031047;28;20101;-63
2021/06/15 08:09:49;;;;;;;3.42;0.90;;;28.70;59.60;;;;;;5029144;28;20069;-63
2021/06/15 08:12:16;;;;;;;4.60;1.17;;;28.60;59.60;;;;;;5029693;28;20029;-63
2021/06/15 08:14:42;;;;;;;6.60;0.98;;;28.50;58.90;;;;;;5033428;28;20049;-63
2021/06/15 08:17:07;;;;;;;7.30;1.27;;;28.10;60.20;;;;;;5032844;28;20041;-63
2021/06/15 08:19:33;;;;;;;8.25;1.25;;;28.00;60.60;;;;;;5028866;28;20017;-63
2021/06/15 08:21:59;;;;;;;7.07;1.50;;;28.20;60.70;;;;;;5029172;28;20379;-63
2021/06/15 08:24:24;;;;;;;4.47;0.98;;;28.40;60.30;;;;;;5027006;28;20112;-63
2021/06/15 08:26:50;;;;;;;3.65;0.75;;;28.50;59.40;;;;;;5030085;28;20032;-63
2021/06/15 08:29:15;;;;;;;6.38;1.15;;;28.50;59.20;;;;;;5027827;28;20044;-64
2021/06/15 08:31:41;;;;;;;4.60;1.13;;;28.50;59.00;;;;;;5021970;28;20029;-62
2021/06/15 08:34:07;;;;;;;5.50;0.85;;;28.60;58.70;;;;;;5030628;28;20083;-63
2021/06/15 08:36:32;;;;;;;4.13;0.85;;;28.70;59.10;;;;;;5025779;28;20495;-62
2021/06/15 08:39:02;;;;;;;5.32;1.02;;;28.80;58.70;;;;;;5026897;28;20660;-63
2021/06/15 08:41:28;;;;;;;4.32;0.73;;;28.90;58.30;;;;;;5024860;28;20033;-63
2021/06/15 08:43:55;;;;;;;6.40;1.30;;;29.20;57.70;;;;;;5024948;28;20029;-65
2021/06/15 08:46:21;;;;;;;4.50;1.30;;;29.50;56.80;;;;;;5024523;28;20038;-63
2021/06/15 08:48:46;;;;;;;4.68;0.63;;;29.50;56.40;;;;;;5025966;28;20034;-64
2021/06/15 08:51:12;;;;;;;5.65;1.55;;;29.60;57.00;;;;;;5021830;28;20044;-63
2021/06/15 08:53:38;;;;;;;5.60;1.20;;;29.60;56.70;;;;;;5028908;28;20021;-63
2021/06/15 08:56:19;;;;;;;3.78;0.75;;;29.30;56.20;;;;;;5034713;28;20025;-63
2021/06/15 08:58:59;;;;;;;7.38;1.35;;;29.10;56.90;;;;;;5032568;28;20022;-63
2021/06/15 09:01:25;;;;;;;2.92;1.05;;;28.90;58.00;;;;;;5029554;28;20511;-64
2021/06/15 09:03:52;;;;;;;3.85;1.27;;;28.90;58.00;;;;;;5030334;28;20029;-64
2021/06/15 09:06:18;;;;;;;7.22;1.92;;;28.80;57.70;;;;;;5024697;28;20399;-65
2021/06/15 09:08:52;;;;;;;4.95;1.23;;;28.70;57.10;;;;;;5027935;28;20029;-65
2021/06/15 09:11:18;;;;;;;5.85;1.08;;;28.60;57.00;;;;;;5029074;28;20022;-64
2021/06/15 09:13:44;;;;;;;5.65;1.17;;;28.40;57.30;;;;;;5021217;28;20017;-65
2021/06/15 09:16:23;;;;;;;9.18;1.08;;;28.30;57.70;;;;;;5031189;28;20018;-64
2021/06/15 09:18:51;;;;;;;4.28;1.48;;;28.20;57.70;;;;;;5039433;28;20514;-64
2021/06/15 09:21:29;;;;;;;5.75;1.55;;;28.10;58.00;;;;;;5030314;28;20155;-63
2021/06/15 09:24:08;;;;;;;8.00;1.30;;;27.80;58.90;;;;;;5026529;28;20105;-64
2021/06/15 09:26:55;;;;;;;6.97;1.13;;;27.80;59.20;;;;;;5026162;28;20090;-63
2021/06/15 09:29:42;;;;;;;9.05;1.20;;;27.90;59.00;;;;;;5030295;28;20037;-63
2021/06/15 09:32:20;;;;;;;7.20;1.35;;;28.10;59.10;;;;;;5030976;28;20704;-64
2021/06/15 09:35:08;;;;;;;6.28;1.27;;;28.40;58.10;;;;;;5034015;28;20014;-63
2021/06/15 09:37:35;;;;;;;7.30;1.30;;;28.70;57.30;;;;;;5026829;28;20033;-64
2021/06/15 09:40:09;;;;;;;5.80;1.15;;;28.80;57.20;;;;;;5033960;28;20017;-64
2021/06/15 09:42:49;;;;;;;6.72;1.23;;;28.80;58.30;;;;;;5034559;28;20025;-64
2021/06/15 09:45:22;;;;;;;5.65;1.50;;;28.90;57.70;;;;;;5024672;28;20386;-63
2021/06/15 09:47:48;;;;;;;9.50;2.10;;;28.90;57.00;;;;;;5026217;28;20030;-65
2021/06/15 09:50:14;;;;;;;3.90;0.73;;;28.90;56.80;;;;;;5030150;28;20592;-64
2021/06/15 09:52:40;;;;;;;9.52;1.55;;;28.90;57.10;;;;;;5031017;28;20024;-64
2021/06/15 09:55:07;;;;;;;8.07;1.67;;;28.80;56.70;;;;;;5029756;28;20029;-64
2021/06/15 09:57:37;;;;;;;6.47;1.10;;;28.60;56.70;;;;;;5026482;28;20475;-64
2021/06/15 10:00:08;;;;;;;7.15;1.42;;;28.40;56.90;;;;;;5029683;28;20018;-65
2021/06/15 10:02:55;;;;;;;9.00;2.13;;;28.30;56.80;;;;;;5026820;28;20045;-65
2021/06/15 10:05:26;;;;;;;8.27;2.20;;;28.10;57.00;;;;;;5035306;28;20033;-65
2021/06/15 10:07:52;;;;;;;5.45;1.52;;;28.00;57.20;;;;;;5030552;28;20036;-65
2021/06/15 10:10:20;;;;;;;7.93;1.70;;;27.90;58.10;;;;;;5030339;28;20021;-63
2021/06/15 10:12:47;;;;;;;8.82;1.60;;;27.90;57.90;;;;;;5039784;28;20024;-65
2021/06/15 10:15:13;;;;;;;7.30;1.67;;;27.80;57.30;;;;;;5023388;28;20068;-63
2021/06/15 10:17:41;;;;;;;10.70;1.77;;;27.80;56.60;;;;;;5013381;28;20095;-64
2021/06/15 10:20:07;;;;;;;6.15;1.38;;;27.70;57.20;;;;;;5021385;28;20021;-64
2021/06/15 10:22:33;;;;;;;17.20;1.60;;;27.60;57.40;;;;;;5011587;28;20053;-64
2021/06/15 10:24:58;;;;;;;8.13;1.80;;;27.50;57.60;;;;;;5022391;28;20060;-64
2021/06/15 10:27:24;;;;;;;9.40;1.65;;;27.50;58.20;;;;;;5013815;28;20014;-64
2021/06/15 10:29:52;;;;;;;8.52;1.30;;;27.50;59.00;;;;;;5018822;28;20506;-64
2021/06/15 10:32:23;;;;;;;6.40;1.55;;;27.50;58.90;;;;;;5015058;28;20010;-64
2021/06/15 10:35:13;;;;;;;7.13;1.38;;;27.50;57.90;;;;;;5017272;28;20038;-64
2021/06/15 10:37:40;;;;;;;6.93;1.40;;;27.50;57.60;;;;;;5014925;28;20018;-66
2021/06/15 10:40:11;;;;;;;6.32;1.58;;;27.30;56.80;;;;;;5018529;28;20021;-66
2021/06/15 10:42:37;;;;;;;7.70;1.40;;;27.30;57.20;;;;;;5017023;28;20021;-66
2021/06/15 10:45:12;;;;;;;7.38;1.67;;;27.40;57.30;;;;;;5016787;28;20016;-64
2021/06/15 10:47:39;;;;;;;8.45;1.50;;;27.50;56.90;;;;;;5017337;28;20013;-63
2021/06/15 10:50:05;;;;;;;8.00;1.25;;;27.70;56.90;;;;;;5017536;28;20033;-64
2021/06/15 10:53:00;;;;;;;11.05;1.58;;;27.70;56.80;;;;;;5014568;28;20093;-64
2021/06/15 10:55:46;;;;;;;6.70;1.92;;;27.90;57.30;;;;;;5026415;28;20133;-64
2021/06/15 10:58:13;;;;;;;6.80;1.48;;;28.00;54.90;;;;;;5025764;28;20021;-65
2021/06/15 11:00:51;;;;;;;7.75;1.85;;;28.00;56.30;;;;;;5021416;28;20026;-68
2021/06/15 11:03:17;;;;;;;9.48;1.65;;;28.10;55.00;;;;;;5023338;28;20029;-66
2021/06/15 11:05:45;;;;;;;7.78;1.23;;;28.00;54.50;;;;;;5026650;28;20025;-66
2021/06/15 11:08:23;;;;;;;8.70;1.92;;;27.90;55.40;;;;;;5023668;28;20030;-66
2021/06/15 11:10:49;;;;;;;6.93;1.53;;;28.00;55.60;;;;;;5017465;28;20030;-66
2021/06/15 11:13:14;;;;;;;7.28;1.48;;;28.00;55.50;;;;;;5017483;28;20088;-66
2021/06/15 11:16:00;;;;;;;7.70;1.50;;;28.10;54.80;;;;;;5020374;28;20100;-66
2021/06/15 11:18:26;;;;;;;6.10;1.40;;;28.20;54.90;;;;;;5010894;28;20034;-66
2021/06/15 11:20:52;;;;;;;7.47;1.73;;;28.30;55.00;;;;;;5020954;28;20041;-66
2021/06/15 11:23:25;;;;;;;5.55;1.23;;;28.50;54.80;;;;;;5032468;28;20559;-65
2021/06/15 11:26:13;;;;;;;7.03;1.58;;;28.50;55.60;;;;;;5025368;28;20040;-67
2021/06/15 11:28:45;;;;;;;5.97;1.50;;;28.60;55.30;;;;;;5023774;28;20198;-67
2021/06/15 11:31:17;;;;;;;6.45;1.60;;;28.50;55.30;;;;;;5024712;28;20018;-65
2021/06/15 11:34:14;;;;;;;6.13;1.33;;;28.50;54.70;;;;;;5023086;28;20061;-66
2021/06/15 11:36:52;;;;;;;10.02;2.22;;;28.70;55.00;;;;;;5028283;28;20021;-66
2021/06/15 11:39:30;;;;;;;8.57;1.55;;;28.60;53.80;;;;;;5024553;28;20032;-66
2021/06/15 11:42:17;;;;;;;4.68;1.08;;;28.70;53.70;;;;;;5028753;28;20025;-66
2021/06/15 11:44:57;;;;;;;5.22;1.20;;;28.70;54.10;;;;;;5026821;28;20027;-66
2021/06/15 11:47:31;;;;;;;14.60;1.95;;;28.50;53.40;;;;;;5027211;28;20084;-66
2021/06/15 11:50:19;;;;;;;6.75;1.58;;;28.30;53.70;;;;;;5028092;28;20048;-66
2021/06/15 11:53:02;;;;;;;10.43;1.92;;;28.20;54.40;;;;;;5026916;28;20048;-66
2021/06/15 11:55:43;;;;;;;8.43;2.15;;;28.00;53.60;;;;;;5029038;28;20017;-65
2021/06/15 11:58:15;;;;;;;7.68;1.80;;;27.90;53.80;;;;;;5027755;28;20563;-65
2021/06/15 12:00:46;;;;;;;8.48;1.98;;;27.90;54.90;;;;;;5028304;28;20075;-65
2021/06/15 12:03:14;;;;;;;6.40;1.80;;;27.90;54.00;;;;;;5027905;28;20021;-65
2021/06/15 12:05:42;;;;;;;5.25;1.55;;;27.80;54.30;;;;;;5028897;28;20052;-66
2021/06/15 12:08:08;;;;;;;8.15;1.92;;;27.70;55.00;;;;;;5028906;28;20585;-66
2021/06/15 12:10:35;;;;;;;8.20;1.70;;;27.70;55.30;;;;;;5028743;28;20026;-66
2021/06/15 12:13:07;;;;;;;8.80;2.00;;;27.60;55.00;;;;;;5028918;28;20075;-66
2021/06/15 12:15:52;;;;;;;15.85;2.83;;;27.50;54.90;;;;;;5025137;28;20053;-66
2021/06/15 12:18:23;;;;;;;24.95;3.53;;;27.50;54.90;;;;;;5026142;28;20117;-65
2021/06/15 12:20:53;;;;;;;11.27;2.90;;;27.40;55.00;;;;;;5027545;28;20453;-65
2021/06/15 12:23:31;;;;;;;5.93;1.83;;;27.40;55.40;;;;;;5028285;28;20037;-65
2021/06/15 12:26:04;;;;;;;10.85;2.10;;;27.40;55.20;;;;;;5024774;28;20064;-65
2021/06/15 12:28:30;;;;;;;6.20;1.80;;;27.50;55.20;;;;;;5032192;28;20022;-65
2021/06/15 12:31:05;;;;;;;4.47;1.42;;;27.60;55.40;;;;;;5032496;28;20039;-65
2021/06/15 12:33:31;;;;;;;7.38;1.60;;;27.70;54.30;;;;;;5031846;28;20072;-65
2021/06/15 12:36:08;;;;;;;10.90;2.05;;;27.60;54.50;;;;;;5030778;28;20025;-65
2021/06/15 12:38:35;;;;;;;6.38;1.80;;;27.50;54.50;;;;;;5022851;28;20022;-65
2021/06/15 12:41:05;;;;;;;11.15;2.20;;;27.50;55.70;;;;;;5025134;28;20607;-65
2021/06/15 12:43:31;;;;;;;9.30;1.73;;;27.60;55.10;;;;;;5031621;28;20113;-65
2021/06/15 12:46:18;;;;;;;9.65;2.45;;;27.60;55.00;;;;;;5029222;28;20104;-65
2021/06/15 12:48:54;;;;;;;9.68;2.63;;;27.60;54.10;;;;;;5028837;28;20037;-65
2021/06/15 12:51:25;;;;;;;7.07;1.88;;;27.50;54.70;;;;;;5024102;28;20014;-65
2021/06/15 12:53:51;;;;;;;6.82;2.00;;;27.50;54.70;;;;;;5029756;28;20044;-64
2021/06/15 12:56:26;;;;;;;8.88;2.00;;;27.40;54.30;;;;;;5029796;28;20072;-64
2021/06/15 12:58:54;;;;;;;10.35;2.40;;;27.30;54.50;;;;;;5029364;28;20025;-65